Terminal Aerodrome Forecast
Issued by NWS

Home | Current Version | Previous Version | Graphics & Text | Print | Product List | Glossary On
Versions: 1 2 3 4 5 6 7 8 9 10 11 12 13 14 15 16 17 18 19 20 21 22 23
000
FTUS43 KGRB 252000 AAA
TAFMTW
TAF AMD
KMTW 252047Z 2521/2618 27008KT P6SM -SN BKN018
      TEMPO 2522/2524 SCT018
     FM260000 26004KT P6SM SCT018
     FM260700 00000KT 4SM BR BKN250
     FM261100 00000KT 2SM BR BKN200
     FM261600 07003KT 6SM HZ SCT090 BKN150=

USA.gov is the U.S. government's official web portal to all federal, state and local government web resources and services.